Time;durP1;ratioP1;P1;durP2;ratioP2;P2;SDS_P1;SDS_P2;PMS_P1;PMS_P2;Temp;Humidity;BMP_temperature;BMP_pressure;BME280_temperature;BME280_humidity;BME280_pressure;Samples;Min_cycle;Max_cycle;Signal;HPM_P1;HPM_P2
2023/03/27 00:02:01;;;;;;;27.95;15.05;;;;;;;3.78;85.07;98785.73;1798019;79;27330;-65
2023/03/27 00:04:28;;;;;;;28.47;15.83;;;;;;;3.77;85.09;98790.83;1797959;79;25602;-65
2023/03/27 00:06:54;;;;;;;32.83;15.98;;;;;;;3.77;85.42;98792.16;1798056;79;25189;-64
2023/03/27 00:09:20;;;;;;;28.90;13.95;;;;;;;3.79;85.39;98790.53;1798058;79;25637;-64
2023/03/27 00:11:47;;;;;;;25.75;15.03;;;;;;;3.80;85.44;98785.41;1797977;79;25527;-64
2023/03/27 00:14:15;;;;;;;24.20;14.23;;;;;;;3.81;85.67;98787.78;1798043;79;27207;-64
2023/03/27 00:16:41;;;;;;;24.27;14.30;;;;;;;3.82;85.49;98785.37;1797912;79;25545;-64
2023/03/27 00:19:08;;;;;;;30.52;15.58;;;;;;;3.86;85.75;98790.91;1797996;79;25580;-65
2023/03/27 00:21:34;;;;;;;26.33;14.30;;;;;;;3.86;85.50;98786.34;1797919;79;25685;-65
2023/03/27 00:24:00;;;;;;;27.40;15.00;;;;;;;3.87;85.47;98781.80;1798059;79;25360;-65
2023/03/27 00:26:29;;;;;;;24.45;14.20;;;;;;;3.87;85.30;98785.81;1797984;79;29541;-65
2023/03/27 00:28:55;;;;;;;24.75;14.23;;;;;;;3.86;85.16;98776.97;1797882;79;25594;-64
2023/03/27 00:31:22;;;;;;;24.30;15.23;;;;;;;3.86;85.18;98775.64;1797993;79;25470;-65
2023/03/27 00:33:48;;;;;;;22.65;14.28;;;;;;;3.85;85.18;98773.29;1797969;79;34824;-64
2023/03/27 00:36:14;;;;;;;30.88;15.95;;;;;;;3.82;84.66;98776.00;1798023;79;25458;-65
2023/03/27 00:38:42;;;;;;;24.18;13.90;;;;;;;3.82;84.68;98780.58;1798031;79;27393;-65
2023/03/27 00:41:09;;;;;;;28.35;14.50;;;;;;;3.81;84.43;98777.64;1797860;79;27256;-64
2023/03/27 00:43:42;;;;;;;22.55;14.78;;;;;;;3.78;84.48;98775.56;1797884;78;25591;-64
2023/03/27 00:46:32;;;;;;;27.37;14.65;;;;;;;3.73;84.33;98766.56;1798001;79;26136;-64
2023/03/27 00:49:03;;;;;;;24.77;13.20;;;;;;;3.71;84.69;98769.28;1797935;79;25375;-64
2023/03/27 00:51:31;;;;;;;24.50;13.65;;;;;;;3.66;84.46;98766.72;1798051;79;27283;-64
2023/03/27 00:53:58;;;;;;;26.42;13.98;;;;;;;3.60;84.24;98768.72;1797918;79;25739;-64
2023/03/27 00:56:25;;;;;;;25.43;14.33;;;;;;;3.55;84.32;98770.16;1797992;79;25627;-64
2023/03/27 00:59:01;;;;;;;26.40;14.07;;;;;;;3.50;83.92;98763.59;1797948;79;25773;-64
2023/03/27 01:01:30;;;;;;;27.60;14.63;;;;;;;3.44;83.99;98764.77;1797999;79;25500;-64
2023/03/27 01:04:04;;;;;;;25.43;13.30;;;;;;;3.38;84.01;98759.30;1798104;79;27374;-64
2023/03/27 01:06:31;;;;;;;22.98;13.35;;;;;;;3.29;83.93;98757.31;1797962;79;25560;-64
2023/03/27 01:08:58;;;;;;;27.25;14.23;;;;;;;3.21;83.79;98762.02;1798073;79;25460;-64
2023/03/27 01:11:51;;;;;;;31.73;15.10;;;;;;;3.09;83.71;98757.72;1797865;79;25653;-64
2023/03/27 01:14:50;;;;;;;27.75;16.25;;;;;;;2.98;83.73;98757.13;1797993;79;25528;-64
2023/03/27 01:18:00;;;;;;;25.88;15.65;;;;;;;2.87;84.14;98755.72;1798080;79;27335;-64
2023/03/27 01:20:53;;;;;;;31.35;15.38;;;;;;;2.79;84.21;98751.31;1797851;79;25384;-64
2023/03/27 01:24:03;;;;;;;32.70;16.10;;;;;;;2.68;84.20;98751.80;1764117;81;25762;-66
2023/03/27 01:26:57;;;;;;;30.80;15.98;;;;;;;2.60;84.60;98757.25;1768104;81;27825;-64
2023/03/27 01:29:53;;;;;;;30.20;15.32;;;;;;;2.56;84.97;98761.60;1768250;81;25341;-64
2023/03/27 01:32:56;;;;;;;27.95;15.48;;;;;;;2.53;85.14;98763.52;1768084;81;27354;-64
2023/03/27 01:35:46;;;;;;;30.65;15.65;;;;;;;2.45;85.25;98762.30;1742341;81;25563;-64
2023/03/27 01:38:55;;;;;;;26.85;14.58;;;;;;;2.41;85.31;98763.98;1768210;81;25575;-64
2023/03/27 01:41:32;;;;;;;25.62;14.18;;;;;;;2.38;85.45;98756.55;1768096;81;25629;-64
2023/03/27 01:44:13;;;;;;;32.10;15.88;;;;;;;2.34;84.96;98754.22;1768729;80;25925;-64
2023/03/27 01:46:52;;;;;;;26.77;14.73;;;;;;;2.33;85.56;98762.75;1769888;81;27320;-64
2023/03/27 01:49:33;;;;;;;28.70;15.98;;;;;;;2.27;85.17;98770.60;1769937;81;25402;-65
2023/03/27 01:52:04;;;;;;;24.57;13.78;;;;;;;2.21;85.23;98771.23;1768798;81;25646;-65
2023/03/27 01:54:35;;;;;;;27.07;14.95;;;;;;;2.12;85.11;98774.84;1769955;81;25673;-65
2023/03/27 01:57:34;;;;;;;26.27;14.45;;;;;;;2.04;85.38;98775.75;1769984;81;25633;-65
2023/03/27 02:00:16;;;;;;;26.95;15.15;;;;;;;1.99;85.86;98783.02;1800582;79;29590;-65
2023/03/27 02:02:50;;;;;;;25.70;15.15;;;;;;;1.95;86.35;98791.35;1804689;79;25550;-65
2023/03/27 02:05:31;;;;;;;30.55;15.80;;;;;;;1.91;86.45;98788.47;1805209;79;25542;-65
2023/03/27 02:08:14;;;;;;;27.27;14.63;;;;;;;1.90;86.44;98794.09;1805158;79;25675;-65
2023/03/27 02:10:47;;;;;;;27.95;16.60;;;;;;;1.85;86.29;98789.61;1804520;79;25470;-64
2023/03/27 02:13:20;;;;;;;27.77;15.03;;;;;;;1.82;86.46;98793.66;1805198;79;26820;-64
2023/03/27 02:15:49;;;;;;;25.68;13.65;;;;;;;1.81;86.87;98790.73;1804467;79;25375;-63
2023/03/27 02:18:27;;;;;;;32.73;14.53;;;;;;;1.80;86.43;98779.80;1805277;79;25545;-63
2023/03/27 02:20:53;;;;;;;29.82;14.98;;;;;;;1.79;86.60;98786.23;1805106;79;25624;-63
2023/03/27 02:23:21;;;;;;;27.48;14.83;;;;;;;1.73;85.97;98785.25;1805172;79;25379;-63
2023/03/27 02:25:51;;;;;;;29.02;15.45;;;;;;;1.66;86.19;98788.27;1805173;79;27391;-63
2023/03/27 02:28:39;;;;;;;28.98;15.03;;;;;;;1.61;86.01;98788.33;1805203;79;29613;-63
2023/03/27 02:31:41;;;;;;;27.13;14.00;;;;;;;1.55;85.85;98786.28;1804509;79;25399;-64
2023/03/27 02:34:48;;;;;;;30.37;15.28;;;;;;;1.51;85.81;98780.47;1805245;79;26284;-64
2023/03/27 02:37:46;;;;;;;30.92;15.40;;;;;;;1.45;86.10;98778.41;1803514;79;25604;-63
2023/03/27 02:40:32;;;;;;;28.45;15.50;;;;;;;1.41;86.13;98779.49;1805066;79;28118;-63
2023/03/27 02:43:07;;;;;;;23.38;13.43;;;;;;;1.35;85.83;98779.32;1805172;79;25652;-63
2023/03/27 02:45:48;;;;;;;24.75;14.10;;;;;;;1.32;85.78;98783.88;1798808;78;25581;-64
2023/03/27 02:48:46;;;;;;;25.15;13.68;;;;;;;1.27;85.80;98790.59;1797856;79;25709;-64
2023/03/27 02:51:24;;;;;;;24.12;13.45;;;;;;;1.22;85.54;98790.66;1773526;79;25533;-64
2023/03/27 02:53:58;;;;;;;26.10;15.18;;;;;;;1.17;86.01;98796.04;1795299;79;27323;-64
2023/03/27 02:56:30;;;;;;;28.55;14.50;;;;;;;1.13;86.16;98792.37;1796662;79;25571;-65
2023/03/27 02:59:02;;;;;;;27.70;14.80;;;;;;;1.09;86.29;98784.13;1798063;79;25348;-64
2023/03/27 03:01:31;;;;;;;28.10;15.28;;;;;;;1.07;86.44;98785.77;1798046;79;25617;-64
2023/03/27 03:04:03;;;;;;;24.60;14.00;;;;;;;1.07;86.64;98789.76;1798262;79;25545;-64
2023/03/27 03:06:30;;;;;;;25.77;13.15;;;;;;;1.07;86.73;98784.95;1797240;79;27480;-65
2023/03/27 03:09:09;;;;;;;26.77;14.83;;;;;;;1.06;86.53;98787.38;1798160;79;25398;-65
2023/03/27 03:11:30;;;;;;;24.15;14.15;;;;;;;1.03;86.56;98790.05;1796091;79;25428;-65
2023/03/27 03:13:56;;;;;;;31.62;15.10;;;;;;;1.00;86.51;98790.61;1798186;79;25773;-65
2023/03/27 03:16:23;;;;;;;31.42;15.40;;;;;;;0.96;86.51;98782.94;1798197;79;25605;-65
2023/03/27 03:18:49;;;;;;;25.77;14.63;;;;;;;0.95;86.58;98780.56;1798158;79;27338;-64
2023/03/27 03:21:16;;;;;;;27.80;13.68;;;;;;;0.89;86.37;98781.94;1797984;79;25555;-65
2023/03/27 03:23:42;;;;;;;30.32;14.45;;;;;;;0.88;86.99;98785.66;1798141;79;25544;-65
2023/03/27 03:26:08;;;;;;;25.65;14.13;;;;;;;0.86;86.81;98779.84;1797982;79;27764;-63
2023/03/27 03:28:34;;;;;;;26.68;15.48;;;;;;;0.85;86.79;98783.59;1798135;79;32279;-65
2023/03/27 03:31:04;;;;;;;28.12;14.00;;;;;;;0.82;86.77;98781.48;1798007;79;29429;-65
2023/03/27 03:33:31;;;;;;;23.27;12.18;;;;;;;0.78;86.43;98779.11;1797946;79;25640;-65
2023/03/27 03:35:59;;;;;;;27.45;13.70;;;;;;;0.73;86.34;98773.84;1798020;79;25527;-64
2023/03/27 03:38:28;;;;;;;29.50;14.45;;;;;;;0.70;86.59;98770.43;1797969;79;25621;-64
2023/03/27 03:40:58;;;;;;;28.00;14.73;;;;;;;0.66;86.70;98777.37;1798170;79;25560;-65
2023/03/27 03:43:27;;;;;;;25.82;13.10;;;;;;;0.63;86.50;98776.08;1798099;79;32953;-65
2023/03/27 03:45:54;;;;;;;;;;;;;;;0.60;86.78;98775.30;1806839;79;25444;-63
2023/03/27 03:48:22;;;;;;;26.30;13.72;;;;;;;0.61;87.19;98778.20;1805099;79;25588;-63
2023/03/27 03:50:49;;;;;;;30.00;13.90;;;;;;;0.64;87.69;98780.31;1805072;79;25695;-63
2023/03/27 03:53:20;;;;;;;26.07;13.93;;;;;;;0.68;88.06;98785.34;1805097;79;25514;-63
2023/03/27 03:55:52;;;;;;;27.70;14.65;;;;;;;0.74;88.32;98787.41;1805108;79;27331;-63
2023/03/27 03:58:19;;;;;;;24.95;13.45;;;;;;;0.80;88.46;98786.81;1805015;79;25392;-62
2023/03/27 04:00:45;;;;;;;30.05;13.68;;;;;;;0.85;88.58;98784.92;1805037;79;25461;-69
2023/03/27 04:03:13;;;;;;;26.55;14.03;;;;;;;0.89;88.59;98791.26;1805081;79;25621;-64
2023/03/27 04:05:41;;;;;;;26.45;15.00;;;;;;;0.95;88.67;98791.99;1805129;79;25410;-65
2023/03/27 04:08:08;;;;;;;26.82;14.70;;;;;;;0.98;88.86;98795.42;1805067;79;27373;-68
2023/03/27 04:10:38;;;;;;;28.83;14.68;;;;;;;1.05;89.00;98792.44;1804974;79;25608;-64
2023/03/27 04:13:05;;;;;;;38.58;20.02;;;;;;;1.13;89.12;98796.36;1805042;79;25513;-64
2023/03/27 04:15:33;;;;;;;33.08;18.35;;;;;;;1.18;89.14;98792.31;1805063;79;25626;-64
2023/03/27 04:18:01;;;;;;;36.80;16.12;;;;;;;1.21;89.10;98793.87;1805106;79;25572;-64
2023/03/27 04:20:28;;;;;;;33.63;17.30;;;;;;;1.28;89.06;98798.86;1805082;79;27494;-64
2023/03/27 04:22:55;;;;;;;31.55;16.27;;;;;;;1.33;89.08;98800.65;1775859;79;25395;-65
2023/03/27 04:25:23;;;;;;;29.98;15.28;;;;;;;1.36;89.13;98802.75;1805221;79;25645;-65
2023/03/27 04:27:51;;;;;;;28.63;16.07;;;;;;;1.39;89.22;98803.52;1805450;79;25668;-65
2023/03/27 04:30:21;;;;;;;32.10;16.90;;;;;;;1.44;89.21;98805.58;1805271;79;25436;-65
2023/03/27 04:32:50;;;;;;;28.25;15.58;;;;;;;1.46;89.19;98804.77;1805243;79;27308;-65
2023/03/27 04:35:19;;;;;;;31.70;20.05;;;;;;;1.50;89.15;98811.66;1805119;79;25620;-65
2023/03/27 04:37:47;;;;;;;31.90;15.75;;;;;;;1.54;89.25;98807.34;1805062;79;25531;-65
2023/03/27 04:40:19;;;;;;;28.12;16.27;;;;;;;1.59;89.39;98810.48;1805016;79;25691;-65
2023/03/27 04:42:46;;;;;;;27.40;15.53;;;;;;;1.62;89.32;98817.37;1805102;79;25549;-65
2023/03/27 04:45:24;;;;;;;30.57;15.45;;;;;;;1.67;89.29;98811.97;1804915;79;27307;-65
2023/03/27 04:47:50;;;;;;;31.95;15.28;;;;;;;1.71;89.56;98813.52;1804818;79;25864;-65
2023/03/27 04:50:18;;;;;;;30.40;14.93;;;;;;;1.75;89.62;98811.86;1775819;79;25478;-65
2023/03/27 04:52:46;;;;;;;28.67;15.60;;;;;;;1.79;89.39;98818.77;1805017;79;25713;-65
2023/03/27 04:55:12;;;;;;;32.13;15.15;;;;;;;1.82;89.29;98821.66;1776226;79;25637;-66
2023/03/27 04:57:38;;;;;;;25.68;14.98;;;;;;;1.85;89.23;98821.61;1805050;79;27386;-66
2023/03/27 05:00:15;;;;;;;28.77;14.83;;;;;;;1.88;89.39;98822.38;1804931;79;25412;-66
2023/03/27 05:02:40;;;;;;;26.62;14.43;;;;;;;1.91;89.43;98824.47;1804479;79;25479;-67
2023/03/27 05:05:09;;;;;;;29.75;15.30;;;;;;;1.97;89.59;98827.85;1805039;79;25560;-67
2023/03/27 05:07:37;;;;;;;22.15;11.25;;;;;;;2.01;89.69;98832.85;1805215;79;25553;-69
2023/03/27 05:10:25;;;;;;;27.55;14.55;;;;;;;2.05;89.72;98837.33;1805059;79;27376;-66
2023/03/27 05:12:53;;;;;;;32.75;15.10;;;;;;;2.10;89.73;98833.02;1677892;85;25794;-66
2023/03/27 05:15:21;;;;;;;28.02;15.68;;;;;;;2.14;89.71;98836.69;1674894;85;25681;-66
2023/03/27 05:17:53;;;;;;;29.37;16.25;;;;;;;2.19;89.80;98840.07;1678186;85;25611;-67
2023/03/27 05:20:17;;;;;;;29.27;16.75;;;;;;;2.23;89.82;98838.43;1649399;87;25615;-65
2023/03/27 05:22:45;;;;;;;31.45;17.15;;;;;;;2.28;89.81;98835.42;1678484;85;27359;-66
2023/03/27 05:25:12;;;;;;;34.58;18.30;;;;;;;2.33;89.85;98835.34;1649139;87;25472;-65
2023/03/27 05:27:48;;;;;;;30.60;18.15;;;;;;;2.39;90.14;98840.88;1678238;84;25554;-66
2023/03/27 05:30:17;;;;;;;34.15;19.07;;;;;;;2.46;90.48;98837.84;1649161;86;25705;-66
2023/03/27 05:32:47;;;;;;;31.45;17.98;;;;;;;2.54;90.74;98829.96;1678268;85;25700;-66
2023/03/27 05:35:21;;;;;;;36.03;19.05;;;;;;;2.61;90.74;98833.59;1674891;85;27959;-66
2023/03/27 05:37:51;;;;;;;35.25;18.17;;;;;;;2.69;91.03;98828.93;1678054;85;25700;-65
2023/03/27 05:40:21;;;;;;;33.42;17.77;;;;;;;2.82;91.59;98838.05;1649211;87;25627;-66
2023/03/27 05:42:50;;;;;;;34.05;18.45;;;;;;;2.94;92.01;98842.37;1678086;85;25700;-67
2023/03/27 05:45:17;;;;;;;37.05;18.48;;;;;;;3.07;92.23;98844.05;1649225;87;25471;-66
2023/03/27 05:47:47;;;;;;;34.95;19.07;;;;;;;3.20;92.33;98844.59;1678122;85;27335;-65
2023/03/27 05:50:19;;;;;;;32.63;18.82;;;;;;;3.29;92.10;98851.41;1677136;84;25665;-66
2023/03/27 05:52:46;;;;;;;35.68;18.15;;;;;;;3.38;92.01;98853.62;1710711;83;25664;-66
2023/03/27 05:55:14;;;;;;;29.67;17.32;;;;;;;3.48;92.33;98853.44;1729617;83;25658;-65
2023/03/27 05:57:41;;;;;;;34.35;18.98;;;;;;;3.58;92.23;98852.45;1711161;83;25776;-67
2023/03/27 06:00:15;;;;;;;42.80;20.00;;;;;;;3.68;92.07;98856.82;1711862;83;27943;-65
2023/03/27 06:02:43;;;;;;;35.55;19.00;;;;;;;3.73;91.77;98860.17;1729530;83;25549;-66
2023/03/27 06:05:12;;;;;;;31.17;17.27;;;;;;;3.79;91.59;98859.52;1711856;82;25575;-66
2023/03/27 06:07:40;;;;;;;32.10;18.15;;;;;;;3.85;91.40;98857.55;1729725;83;25611;-66
2023/03/27 06:10:11;;;;;;;33.30;18.92;;;;;;;3.91;91.41;98869.71;1711836;83;25483;-65
2023/03/27 06:12:41;;;;;;;33.65;17.40;;;;;;;3.98;91.37;98858.61;1706606;82;27375;-67
2023/03/27 06:15:10;;;;;;;31.33;17.95;;;;;;;4.03;91.30;98870.54;1673354;85;25713;-68
2023/03/27 06:17:41;;;;;;;32.10;16.75;;;;;;;4.10;91.24;98874.93;1673466;85;25646;-66
2023/03/27 06:20:11;;;;;;;27.82;16.40;;;;;;;4.14;91.11;98874.59;1703178;84;25739;-66
2023/03/27 06:22:47;;;;;;;27.87;15.43;;;;;;;4.20;91.21;98877.39;1673454;85;25622;-66
2023/03/27 06:25:16;;;;;;;30.17;16.10;;;;;;;4.24;90.97;98878.91;1673186;84;28242;-66
2023/03/27 06:27:45;;;;;;;30.68;17.17;;;;;;;4.27;90.83;98885.01;1703231;84;25449;-66
2023/03/27 06:30:15;;;;;;;27.90;14.78;;;;;;;4.32;90.97;98878.20;1673545;85;25676;-65
2023/03/27 06:32:51;;;;;;;31.45;16.15;;;;;;;4.36;90.94;98881.06;1673370;85;26248;-65
2023/03/27 06:35:20;;;;;;;30.25;15.10;;;;;;;4.41;90.97;98885.78;1703271;84;25673;-67
2023/03/27 06:37:49;;;;;;;27.22;15.80;;;;;;;4.47;90.88;98887.23;1673675;85;27388;-66
2023/03/27 06:40:21;;;;;;;27.40;14.33;;;;;;;4.52;90.86;98889.56;1673309;85;25743;-66
2023/03/27 06:42:56;;;;;;;28.90;14.98;;;;;;;4.54;90.62;98894.84;1703013;84;25468;-65
2023/03/27 06:45:26;;;;;;;27.40;15.45;;;;;;;4.58;90.39;98900.39;1582932;90;25643;-65
2023/03/27 06:47:56;;;;;;;26.70;14.70;;;;;;;4.60;90.38;98903.58;1600671;89;25565;-65
2023/03/27 06:50:24;;;;;;;28.42;14.23;;;;;;;4.65;90.49;98898.10;1591577;90;27951;-66
2023/03/27 06:52:51;;;;;;;26.70;13.93;;;;;;;4.68;90.34;98898.81;1598133;89;25489;-66
2023/03/27 06:55:20;;;;;;;25.08;12.98;;;;;;;4.73;90.37;98900.03;1598015;89;25646;-65
2023/03/27 06:57:54;;;;;;;24.37;12.45;;;;;;;4.80;90.70;98896.94;1598066;89;26811;-66
2023/03/27 07:00:25;;;;;;;23.85;12.40;;;;;;;4.89;90.72;98896.98;1597983;89;25758;-65
2023/03/27 07:02:59;;;;;;;23.27;11.80;;;;;;;5.03;90.95;98903.87;1597993;89;27947;-67
2023/03/27 07:05:30;;;;;;;19.80;11.05;;;;;;;5.20;90.90;98904.53;1597940;89;25720;-66
2023/03/27 07:07:57;;;;;;;22.05;9.53;;;;;;;5.40;90.92;98907.80;1598014;89;25695;-66
2023/03/27 07:10:25;;;;;;;20.05;9.93;;;;;;;5.54;89.75;98909.83;1582952;90;25639;-66
2023/03/27 07:12:53;;;;;;;15.85;9.53;;;;;;;5.63;88.92;98907.73;1619483;87;25739;-65
2023/03/27 07:15:21;;;;;;;16.73;8.78;;;;;;;5.73;88.65;98906.12;1623264;88;27614;-65
2023/03/27 07:17:59;;;;;;;20.17;8.78;;;;;;;5.92;88.99;98908.55;1623212;88;25812;-64
2023/03/27 07:20:28;;;;;;;12.13;6.33;;;;;;;6.06;88.12;98915.16;1623533;88;25746;-65
2023/03/27 07:22:57;;;;;;;14.25;5.33;;;;;;;6.19;86.09;98924.20;1676676;83;25686;-66
2023/03/27 07:25:27;;;;;;;8.88;5.10;;;;;;;6.48;87.20;98920.36;1713483;83;25410;-65
2023/03/27 07:28:00;;;;;;;12.07;5.58;;;;;;;7.05;87.50;98922.66;1712666;83;27500;-66
2023/03/27 07:30:27;;;;;;;13.03;4.70;;;;;;;7.79;88.08;98922.05;1713189;83;25584;-65
2023/03/27 07:32:54;;;;;;;13.35;5.70;;;;;;;8.25;85.78;98920.94;1713290;83;25596;-66
2023/03/27 07:35:20;;;;;;;15.45;6.65;;;;;;;8.72;83.87;98921.58;1713289;83;25640;-66
2023/03/27 07:37:46;;;;;;;9.55;6.30;;;;;;;9.24;83.39;98930.31;1713274;83;25704;-66
2023/03/27 07:40:13;;;;;;;13.38;6.55;;;;;;;9.58;81.60;98937.25;1728475;83;27350;-65
2023/03/27 07:42:44;;;;;;;12.37;6.97;;;;;;;10.01;80.30;98929.73;1728419;83;25676;-65
2023/03/27 07:45:12;;;;;;;13.53;6.95;;;;;;;10.36;78.46;98938.19;1702599;84;25643;-66
2023/03/27 07:47:42;;;;;;;10.05;6.60;;;;;;;10.36;76.08;98942.81;1728459;83;25618;-65
2023/03/27 07:50:12;;;;;;;8.48;5.90;;;;;;;10.19;74.57;98942.47;1702797;84;25409;-67
2023/03/27 07:52:42;;;;;;;12.50;5.53;;;;;;;10.03;73.47;98948.55;1728451;83;27333;-66
2023/03/27 07:55:11;;;;;;;12.30;5.50;;;;;;;9.90;73.14;98941.00;1702680;83;25811;-66
2023/03/27 07:57:40;;;;;;;11.22;5.12;;;;;;;9.90;73.13;98946.97;1728508;83;25543;-66
2023/03/27 08:00:11;;;;;;;8.50;4.20;;;;;;;9.91;72.94;98953.38;1702819;84;25653;-66
2023/03/27 08:02:38;;;;;;;9.93;4.40;;;;;;;10.02;71.38;98954.29;1728553;83;25457;-66
2023/03/27 08:05:07;;;;;;;10.53;4.55;;;;;;;10.29;71.55;98952.81;1702640;84;27440;-65
2023/03/27 08:07:39;;;;;;;12.93;4.12;;;;;;;10.43;70.63;98961.38;1728570;83;34814;-67
2023/03/27 08:10:08;;;;;;;8.95;4.20;;;;;;;10.59;70.32;98966.89;1702610;84;25595;-68
2023/03/27 08:12:35;;;;;;;13.67;4.00;;;;;;;11.03;71.08;98971.59;1713954;81;25624;-66
2023/03/27 08:15:05;;;;;;;12.07;4.40;;;;;;;11.43;69.44;98974.04;1671676;85;25446;-67
2023/03/27 08:17:34;;;;;;;10.20;3.45;;;;;;;11.66;68.95;98968.81;1682917;85;27398;-66
2023/03/27 08:20:07;;;;;;;5.65;3.10;;;;;;;11.77;67.86;98978.78;1703187;84;25579;-65
2023/03/27 08:22:31;;;;;;;;;;;;;;;11.77;66.77;98980.14;1674646;84;25473;-65
2023/03/27 08:24:57;;;;;;;6.87;2.92;;;;;;;11.68;65.14;98982.24;1698848;84;25655;-66
2023/03/27 08:27:24;;;;;;;12.73;3.50;;;;;;;11.66;64.75;98978.30;1685901;85;25245;-66
2023/03/27 08:29:50;;;;;;;9.23;3.22;;;;;;;11.69;64.34;98983.02;1685907;85;28043;-66
2023/03/27 08:32:16;;;;;;;7.80;3.20;;;;;;;11.78;64.44;98984.44;1685818;85;25840;-67
2023/03/27 08:34:42;;;;;;;7.87;3.30;;;;;;;11.92;64.62;98990.80;1685877;85;25443;-68
2023/03/27 08:37:10;;;;;;;6.75;3.98;;;;;;;12.02;64.23;98995.47;1685803;85;25633;-67
2023/03/27 08:39:37;;;;;;;7.35;3.70;;;;;;;11.92;63.49;99002.22;1685871;85;25464;-68
2023/03/27 08:42:07;;;;;;;9.33;3.65;;;;;;;11.76;62.76;99003.52;1685844;85;27318;-66
2023/03/27 08:44:35;;;;;;;7.92;3.83;;;;;;;11.67;62.68;99005.61;1685734;85;25459;-67
2023/03/27 08:47:13;;;;;;;7.00;2.92;;;;;;;11.52;62.55;99007.15;1659901;85;25452;-66
2023/03/27 08:49:45;;;;;;;8.00;2.77;;;;;;;11.35;61.91;99010.37;1703055;84;27849;-67
2023/03/27 08:52:16;;;;;;;6.10;3.22;;;;;;;11.17;62.29;99009.89;1671629;85;25464;-67
2023/03/27 08:54:48;;;;;;;10.68;3.52;;;;;;;10.98;61.38;99011.88;1682839;85;27384;-67
2023/03/27 08:57:22;;;;;;;10.32;2.80;;;;;;;10.77;61.51;99012.02;1702888;84;25578;-67
2023/03/27 08:59:53;;;;;;;9.35;3.85;;;;;;;10.57;61.68;99012.95;1671705;85;25597;-68
2023/03/27 09:02:47;;;;;;;7.92;2.80;;;;;;;10.32;61.87;99004.88;1682886;85;25622;-66
2023/03/27 09:05:35;;;;;;;7.03;2.60;;;;;;;10.19;62.02;99016.77;1703261;83;25462;-66
2023/03/27 09:08:29;;;;;;;4.80;2.27;;;;;;;10.06;62.16;99017.31;1672215;84;27408;-67
2023/03/27 09:11:10;;;;;;;8.30;2.90;;;;;;;9.88;62.34;99015.39;1674118;84;25517;-67
2023/03/27 09:13:42;;;;;;;11.08;2.72;;;;;;;9.70;61.84;99016.94;1703447;84;25605;-66
2023/03/27 09:16:30;;;;;;;5.37;2.60;;;;;;;9.56;62.23;99023.75;1703316;84;27766;-65
2023/03/27 09:19:07;;;;;;;3.92;2.37;;;;;;;9.49;62.53;99026.98;1673866;85;25618;-66
2023/03/27 09:21:44;;;;;;;6.87;2.52;;;;;;;9.28;61.37;99023.77;1675069;85;27549;-61
2023/03/27 09:24:28;;;;;;;6.85;2.70;;;;;;;9.06;61.74;99030.83;1687268;84;25422;-62
2023/03/27 09:26:56;;;;;;;3.95;2.40;;;;;;;8.89;62.04;99037.95;1687306;84;25577;-62
2023/03/27 09:29:28;;;;;;;5.10;2.90;;;;;;;8.69;62.09;99043.55;1687298;85;25707;-63
2023/03/27 09:31:56;;;;;;;8.63;2.60;;;;;;;8.50;62.28;99043.97;1687401;84;25601;-68
2023/03/27 09:34:27;;;;;;;7.95;3.10;;;;;;;8.34;62.54;99056.37;1687412;85;28628;-68
2023/03/27 09:36:54;;;;;;;6.17;2.98;;;;;;;8.27;62.98;99046.66;1687277;85;25663;-68
2023/03/27 09:39:27;;;;;;;6.65;3.02;;;;;;;8.28;63.56;99053.64;1687362;84;25449;-68
2023/03/27 09:42:05;;;;;;;5.58;3.08;;;;;;;8.29;63.75;99052.52;1687319;85;25708;-68
2023/03/27 09:44:40;;;;;;;11.25;4.20;;;;;;;8.39;63.65;99056.19;1663684;85;25617;-68
2023/03/27 09:47:13;;;;;;;8.90;3.52;;;;;;;8.35;62.82;99056.62;1687334;84;27978;-67
2023/03/27 09:49:50;;;;;;;12.68;3.70;;;;;;;8.20;62.26;99069.49;1687292;85;25417;-67
2023/03/27 09:52:40;;;;;;;11.40;4.40;;;;;;;7.98;62.52;99067.05;1687074;85;25403;-66
2023/03/27 09:55:30;;;;;;;12.63;4.40;;;;;;;7.88;63.07;99068.73;1687282;85;25694;-69
2023/03/27 09:58:20;;;;;;;6.67;3.62;;;;;;;7.76;63.05;99069.39;1663672;85;25692;-68
2023/03/27 10:00:47;;;;;;;6.42;2.75;;;;;;;7.62;63.02;99072.27;1687117;85;27406;-67
2023/03/27 10:03:17;;;;;;;8.40;3.10;;;;;;;7.52;63.29;99074.72;1687376;85;25467;-67
2023/03/27 10:05:45;;;;;;;13.38;3.95;;;;;;;7.46;63.50;99075.45;1687292;84;25480;-67
2023/03/27 10:08:41;;;;;;;10.43;3.80;;;;;;;7.40;63.32;99079.95;1687371;85;26021;-67
2023/03/27 10:11:16;;;;;;;9.90;3.35;;;;;;;7.30;63.67;99086.44;1687523;85;25634;-68
2023/03/27 10:13:48;;;;;;;6.40;2.92;;;;;;;7.28;63.94;99092.13;1702110;84;27998;-68
2023/03/27 10:16:18;;;;;;;4.45;3.02;;;;;;;7.22;63.90;99086.69;1706913;84;26247;-68
2023/03/27 10:18:53;;;;;;;6.37;3.25;;;;;;;7.22;63.98;99092.59;1707055;84;25679;-66
2023/03/27 10:21:36;;;;;;;12.45;4.05;;;;;;;7.23;64.27;99090.16;1707011;84;25839;-68
2023/03/27 10:24:17;;;;;;;8.55;3.55;;;;;;;7.22;64.05;99092.59;1706854;84;25618;-71
2023/03/27 10:26:47;;;;;;;8.95;3.95;;;;;;;7.08;63.52;99102.16;1706849;83;28071;-70
2023/03/27 10:29:36;;;;;;;5.30;3.22;;;;;;;6.96;63.52;99106.80;1706908;84;25639;-70
2023/03/27 10:32:05;;;;;;;6.00;3.40;;;;;;;6.87;63.59;99101.97;1707175;84;25598;-71
2023/03/27 10:34:45;;;;;;;7.03;3.85;;;;;;;6.77;63.76;99107.08;1707045;84;25630;-72
2023/03/27 10:37:30;;;;;;;8.35;4.25;;;;;;;6.66;64.08;99105.23;1701573;84;25526;-71
2023/03/27 10:40:06;;;;;;;8.83;3.45;;;;;;;6.59;64.37;99103.56;1706883;84;28797;-71
2023/03/27 10:42:32;;;;;;;7.65;4.17;;;;;;;6.60;64.83;99110.50;1683527;84;25497;-65
2023/03/27 10:44:59;;;;;;;8.08;4.42;;;;;;;6.58;64.25;99110.59;1685011;85;25573;-64
2023/03/27 10:47:32;;;;;;;8.48;3.85;;;;;;;6.53;64.27;99109.61;1713308;83;26138;-64
2023/03/27 10:50:19;;;;;;;4.78;3.12;;;;;;;6.53;64.17;99106.92;1713644;83;25475;-64
2023/03/27 10:52:56;;;;;;;4.83;2.80;;;;;;;6.53;64.21;99106.14;1684233;85;27328;-65
2023/03/27 10:55:44;;;;;;;4.67;2.92;;;;;;;6.60;64.60;99105.69;1712431;83;25438;-65
2023/03/27 10:58:31;;;;;;;5.75;2.83;;;;;;;6.70;63.72;99110.78;1713193;83;25539;-64
2023/03/27 11:01:21;;;;;;;4.90;2.80;;;;;;;6.68;63.32;99111.65;1684164;85;25588;-64
2023/03/27 11:04:04;;;;;;;7.33;3.15;;;;;;;6.75;63.12;99112.54;1713207;82;25560;-64
2023/03/27 11:06:35;;;;;;;5.15;2.98;;;;;;;6.84;63.10;99107.41;1683437;85;29475;-65
2023/03/27 11:09:30;;;;;;;2.30;2.10;;;;;;;6.98;63.61;99117.24;1684853;85;27206;-64
2023/03/27 11:12:10;;;;;;;8.98;3.10;;;;;;;7.06;61.84;99121.29;1713265;83;25478;-65
2023/03/27 11:14:57;;;;;;;6.95;2.77;;;;;;;7.03;61.23;99123.28;1728381;82;25690;-65
2023/03/27 11:17:44;;;;;;;5.78;2.52;;;;;;;6.97;60.81;99126.43;1702587;84;25667;-65
2023/03/27 11:20:28;;;;;;;6.15;2.90;;;;;;;6.93;60.62;99120.89;1728047;83;27162;-64
2023/03/27 11:23:04;;;;;;;7.12;3.40;;;;;;;6.90;60.74;99116.13;1725128;83;25658;-71
2023/03/27 11:25:45;;;;;;;4.87;3.00;;;;;;;6.92;60.84;99115.27;1725255;83;25606;-70
2023/03/27 11:28:20;;;;;;;8.73;3.75;;;;;;;6.93;60.93;99120.89;1725190;83;25752;-70
2023/03/27 11:30:54;;;;;;;4.70;2.95;;;;;;;6.91;61.10;99130.61;1725060;83;25449;-68
2023/03/27 11:33:46;;;;;;;6.53;3.37;;;;;;;6.83;60.91;99130.59;1725207;83;27321;-72
2023/03/27 11:36:43;;;;;;;7.28;4.33;;;;;;;6.76;60.78;99135.61;1725146;83;25582;-69
2023/03/27 11:39:30;;;;;;;6.60;3.75;;;;;;;6.61;60.61;99130.91;1725239;83;25474;-71
2023/03/27 11:42:01;;;;;;;8.48;3.27;;;;;;;6.54;60.57;99125.98;1725186;83;25690;-70
2023/03/27 11:44:29;;;;;;;5.22;3.17;;;;;;;6.50;60.61;99137.65;1725243;83;25709;-69
2023/03/27 11:47:30;;;;;;;5.37;3.02;;;;;;;6.49;60.71;99136.08;1725184;83;27315;-70
2023/03/27 11:50:25;;;;;;;6.28;2.83;;;;;;;6.57;60.70;99140.67;1725146;83;25484;-70
2023/03/27 11:53:27;;;;;;;5.35;3.20;;;;;;;6.61;60.87;99137.63;1725266;81;25447;-69
2023/03/27 11:56:30;;;;;;;5.42;2.90;;;;;;;6.81;61.02;99134.94;1649209;87;25632;-69
2023/03/27 11:59:37;;;;;;;7.53;2.80;;;;;;;7.21;60.28;99127.34;1652352;86;25603;-71
2023/03/27 12:02:17;;;;;;;5.92;2.80;;;;;;;7.50;59.91;99130.76;1622364;88;29477;-71
2023/03/27 12:05:23;;;;;;;6.22;3.10;;;;;;;7.54;58.78;99123.63;1623051;85;25879;-71